メインページ
METAR-TAF:

METAR-TAF

空港 :

Stewart, ブリティッシュコロンビア州, カナダ

緯度: 55-56N, 経度: 129-59W, 海抜: 7m

現時点の気象観測

当レポートは1時間9分前の15:00(UTC)に作成
変向風 2kt
気温 11°C
湿度 94%
気圧 1016 hPa
視程: 12.9km
高度1500ftの雲は散在している
高度5500ftの千切れ雲あり
高度8000ftの千切れ雲あり

METAR: CZST 111500Z VRB02KT 8SM SCT015 BKN055 BKN080 11/10 A2999 RMK SC3SC2AC2 CLIMAT 14.0/9.4/0.1 SLP156

時間: 09:09 (16:09 UTC)


TAF: 見つかりません

4,000以上の空港の気象観測と天気予報(METAR報とTAF報)

利用可能な観測所は地図上に黄色い丸と赤い丸で示す。

丸の上にカーソルを重ねると観測所名を参照できる。

次にクリックすると気象観測と天気予報を参照できる。

マップの切り替え:黒色「×」印の緑ボタンをクリックして拡大、「-」印の緑ボタンをクリックして縮小、緑色の三角印をクリックして隣りの地図に切り替え


METAR-TAF: